createdAt,value
2023-02-19T00:00:53.502Z,77.41
2023-02-19T00:03:43.224Z,77.25
2023-02-19T00:06:51.834Z,77.30
2023-02-19T00:09:42.432Z,77.11
2023-02-19T00:12:51.107Z,77.04
2023-02-19T00:15:51.099Z,76.99
2023-02-19T00:18:39.590Z,77.07
2023-02-19T00:21:31.479Z,77.10
2023-02-19T00:24:23.317Z,77.03
2023-02-19T00:27:11.989Z,77.28
2023-02-19T00:30:14.250Z,77.36
2023-02-19T00:33:23.256Z,77.41
2023-02-19T00:36:34.720Z,77.60
2023-02-19T00:39:36.331Z,77.79
2023-02-19T00:42:25.287Z,77.85
2023-02-19T00:45:35.246Z,78.05
2023-02-19T00:48:44.239Z,78.18
2023-02-19T00:51:53.092Z,78.11
2023-02-19T00:55:02.001Z,78.25
2023-02-19T00:57:53.019Z,78.28
2023-02-19T01:00:52.180Z,78.30
2023-02-19T01:04:23.335Z,78.50
2023-02-19T01:07:29.492Z,78.57
2023-02-19T01:10:38.602Z,78.55
2023-02-19T01:13:28.779Z,78.76
2023-02-19T01:16:37.912Z,78.82
2023-02-19T01:19:30.070Z,78.83
2023-02-19T01:22:31.853Z,78.89
2023-02-19T01:25:29.947Z,78.90
2023-02-19T01:28:19.035Z,78.85
2023-02-19T01:31:22.234Z,78.86
2023-02-19T01:34:32.895Z,78.91
2023-02-19T01:37:29.187Z,78.98
2023-02-19T01:40:27.135Z,79.02
2023-02-19T01:43:55.020Z,78.96
2023-02-19T01:46:53.738Z,79.08
2023-02-19T01:49:56.466Z,79.09
2023-02-19T01:53:07.129Z,79.25
2023-02-19T01:56:17.674Z,79.19
2023-02-19T01:59:19.883Z,79.18
2023-02-19T02:02:29.394Z,79.18
2023-02-19T02:05:45.162Z,79.16
2023-02-19T02:08:52.821Z,79.04
2023-02-19T02:12:01.912Z,79.06
2023-02-19T02:14:50.617Z,79.06
2023-02-19T02:17:51.622Z,79.08
2023-02-19T02:21:04.190Z,79.20
2023-02-19T02:24:19.641Z,79.13
2023-02-19T02:27:42.134Z,79.01
2023-02-19T02:30:45.148Z,79.00
2023-02-19T02:33:57.523Z,79.01
2023-02-19T02:37:08.389Z,79.00
2023-02-19T02:40:11.368Z,78.87
2023-02-19T02:43:20.509Z,78.87
2023-02-19T02:46:35.242Z,78.72
2023-02-19T02:50:04.733Z,78.64
2023-02-19T02:53:36.700Z,78.71
2023-02-19T02:56:46.771Z,78.79
2023-02-19T02:59:55.787Z,78.87
2023-02-19T03:02:57.547Z,78.89
2023-02-19T03:06:09.297Z,79.08
2023-02-19T03:09:20.886Z,79.33
2023-02-19T03:12:33.809Z,79.42
2023-02-19T03:16:03.356Z,79.58
2023-02-19T03:19:20.226Z,79.69
2023-02-19T03:22:31.281Z,79.77
2023-02-19T03:25:59.230Z,79.91
2023-02-19T03:29:26.017Z,79.94
2023-02-19T03:32:38.693Z,80.06
2023-02-19T03:35:54.506Z,80.23
2023-02-19T03:39:26.949Z,80.39
2023-02-19T03:42:42.393Z,80.74
2023-02-19T03:45:56.154Z,80.92
2023-02-19T03:48:59.148Z,80.93
2023-02-19T03:52:11.825Z,81.15
2023-02-19T03:55:16.259Z,81.38
2023-02-19T03:58:22.721Z,81.52
2023-02-19T04:01:27.971Z,81.74
2023-02-19T04:04:31.884Z,81.89
2023-02-19T04:07:36.429Z,81.98
2023-02-19T04:10:47.445Z,82.00
2023-02-19T04:13:59.785Z,82.12
2023-02-19T04:17:12.006Z,82.09
2023-02-19T04:20:07.542Z,82.08
2023-02-19T04:36:43.246Z,82.40
2023-02-19T04:40:33.949Z,82.47
2023-02-19T04:44:38.951Z,82.57
2023-02-19T04:51:56.082Z,82.53
2023-02-19T04:55:27.126Z,82.68
2023-02-19T04:59:17.523Z,82.83
2023-02-19T05:03:46.200Z,82.93
2023-02-19T05:07:49.013Z,83.25
2023-02-19T05:11:44.051Z,83.45
2023-02-19T05:23:38.178Z,84.19
2023-02-19T05:35:08.175Z,84.73
2023-02-19T05:42:19.580Z,84.61
2023-02-19T05:54:31.734Z,84.69
2023-02-19T05:58:01.227Z,84.78
2023-02-19T06:01:36.523Z,84.68
2023-02-19T06:05:20.015Z,84.81
2023-02-19T06:24:47.661Z,85.13
2023-02-19T06:28:08.122Z,85.33
2023-02-19T06:31:20.345Z,85.46
2023-02-19T06:38:18.924Z,85.49
2023-02-19T06:41:52.148Z,85.72
2023-02-19T06:57:55.199Z,86.69
2023-02-19T07:01:27.752Z,86.99
2023-02-19T07:04:38.161Z,87.12
2023-02-19T07:07:52.229Z,87.21
2023-02-19T07:19:14.508Z,87.65
2023-02-19T07:22:53.216Z,87.55
2023-02-19T07:26:06.189Z,87.53
2023-02-19T07:29:17.774Z,87.41
2023-02-19T07:32:33.058Z,87.46
2023-02-19T07:43:26.298Z,87.47
2023-02-19T07:46:57.740Z,87.42
2023-02-19T07:54:53.089Z,87.40
2023-02-19T08:02:52.612Z,87.64
2023-02-19T08:11:41.916Z,87.45
2023-02-19T08:27:35.613Z,87.52
2023-02-19T08:51:34.424Z,87.36
2023-02-19T09:07:50.545Z,87.15
2023-02-19T09:11:49.179Z,87.01
2023-02-19T09:15:23.981Z,86.94
2023-02-19T09:19:32.088Z,86.90
2023-02-19T09:23:38.718Z,86.67
2023-02-19T09:27:10.975Z,86.52
2023-02-19T09:31:18.428Z,86.31
2023-02-19T09:35:29.637Z,86.02
2023-02-19T09:43:42.532Z,84.78
2023-02-19T09:47:59.056Z,84.30
2023-02-19T10:28:53.179Z,82.72
2023-02-19T10:32:23.542Z,82.34
2023-02-19T10:35:14.044Z,81.70
2023-02-19T10:38:07.829Z,81.27
2023-02-19T10:41:05.153Z,81.20
2023-02-19T10:43:59.807Z,80.88
2023-02-19T10:46:55.087Z,81.04
2023-02-19T10:49:48.669Z,81.10
2023-02-19T10:52:37.551Z,81.14
2023-02-19T10:55:31.388Z,80.65
2023-02-19T10:58:28.046Z,80.25
2023-02-19T11:01:19.584Z,80.03
2023-02-19T11:04:17.268Z,80.06
2023-02-19T11:07:15.810Z,80.03
2023-02-19T11:10:08.274Z,80.02
2023-02-19T11:13:02.163Z,79.79
2023-02-19T11:15:54.477Z,79.46
2023-02-19T11:18:44.726Z,78.85
2023-02-19T11:21:35.445Z,78.02
2023-02-19T11:24:47.931Z,77.41
2023-02-19T11:27:53.608Z,76.66
2023-02-19T11:30:45.852Z,75.64
2023-02-19T11:33:37.239Z,75.03
2023-02-19T11:36:35.459Z,74.48
2023-02-19T11:39:28.998Z,73.60
2023-02-19T11:42:41.972Z,72.76
2023-02-19T11:45:36.078Z,71.14
2023-02-19T11:48:55.033Z,70.16
2023-02-19T11:52:02.884Z,67.34
2023-02-19T11:55:06.383Z,58.26
2023-02-19T11:58:09.011Z,56.64
2023-02-19T12:01:04.854Z,57.98
2023-02-19T12:04:37.880Z,57.11
2023-02-19T12:07:39.995Z,57.18
2023-02-19T12:10:34.830Z,56.81
2023-02-19T12:13:32.682Z,57.10
2023-02-19T12:16:26.167Z,55.62
2023-02-19T12:19:56.969Z,53.70
2023-02-19T12:22:51.948Z,51.75
2023-02-19T12:25:48.093Z,51.49
2023-02-19T12:28:51.088Z,51.89
2023-02-19T12:31:57.935Z,52.64
2023-02-19T12:35:15.506Z,54.48
2023-02-19T12:38:13.711Z,54.61
2023-02-19T12:41:23.399Z,54.01
2023-02-19T12:44:16.069Z,53.48
2023-02-19T12:47:07.005Z,52.08
2023-02-19T12:50:02.005Z,47.72
2023-02-19T12:52:55.973Z,44.76
2023-02-19T12:55:55.958Z,42.09
2023-02-19T12:58:50.481Z,39.55
2023-02-19T13:01:45.747Z,37.86
2023-02-19T13:07:54.422Z,36.97
2023-02-19T13:10:44.579Z,36.81
2023-02-19T13:13:37.969Z,35.95
2023-02-19T13:16:40.441Z,34.88
2023-02-19T13:19:33.126Z,35.50
2023-02-19T13:22:44.411Z,35.62
2023-02-19T13:25:43.697Z,34.47
2023-02-19T13:33:23.284Z,37.54
2023-02-19T13:36:35.713Z,39.40
2023-02-19T13:40:10.079Z,40.56
2023-02-19T13:44:02.384Z,42.23
2023-02-19T13:47:29.149Z,42.17
2023-02-19T13:51:18.713Z,42.52
2023-02-19T13:54:22.910Z,40.94
2023-02-19T13:57:37.997Z,39.27
2023-02-19T14:00:51.876Z,37.02
2023-02-19T14:04:10.558Z,36.12
2023-02-19T14:07:36.377Z,36.51
2023-02-19T14:10:53.873Z,36.55
2023-02-19T14:14:25.197Z,36.38
2023-02-19T14:17:45.275Z,35.67
2023-02-19T14:21:34.185Z,35.51
2023-02-19T14:24:44.956Z,36.84
2023-02-19T14:27:54.960Z,38.86
2023-02-19T14:31:29.657Z,40.09
2023-02-19T14:34:59.410Z,39.67
2023-02-19T14:38:18.295Z,38.71
2023-02-19T14:43:22.108Z,37.67
2023-02-19T14:46:16.555Z,37.93
2023-02-19T14:49:07.336Z,40.02
2023-02-19T14:52:00.658Z,41.00
2023-02-19T14:54:52.644Z,40.68
2023-02-19T14:57:45.452Z,40.19
2023-02-19T15:00:36.455Z,40.16
2023-02-19T15:03:27.177Z,40.46
2023-02-19T15:06:18.090Z,41.27
2023-02-19T15:09:07.220Z,42.10
2023-02-19T15:11:59.005Z,42.43
2023-02-19T15:14:48.550Z,42.36
2023-02-19T15:17:39.229Z,43.44
2023-02-19T15:20:28.832Z,44.04
2023-02-19T15:23:22.320Z,44.17
2023-02-19T15:26:18.948Z,44.72
2023-02-19T15:29:11.094Z,45.37
2023-02-19T15:32:01.781Z,45.94
2023-02-19T15:34:57.266Z,46.75
2023-02-19T15:37:46.050Z,47.76
2023-02-19T15:40:35.258Z,48.21
2023-02-19T15:43:26.107Z,48.74
2023-02-19T15:46:17.964Z,49.42
2023-02-19T15:49:09.224Z,50.16
2023-02-19T15:52:00.223Z,50.48
2023-02-19T15:54:55.654Z,51.01
2023-02-19T15:57:50.942Z,51.68
2023-02-19T16:00:41.525Z,52.27
2023-02-19T16:03:30.954Z,52.89
2023-02-19T16:06:19.792Z,53.29
2023-02-19T16:09:19.902Z,53.81
2023-02-19T16:12:20.875Z,54.45
2023-02-19T16:15:15.245Z,55.36
2023-02-19T16:18:14.693Z,56.10
2023-02-19T16:21:08.071Z,57.07
2023-02-19T16:23:59.317Z,58.15
2023-02-19T16:26:47.766Z,58.91
2023-02-19T16:29:36.888Z,59.44
2023-02-19T16:32:31.322Z,59.77
2023-02-19T16:35:35.948Z,59.97
2023-02-19T16:38:27.331Z,60.47
2023-02-19T16:41:18.887Z,60.72
2023-02-19T16:44:31.149Z,61.35
2023-02-19T16:47:44.469Z,62.33
2023-02-19T16:50:53.279Z,63.05
2023-02-19T16:53:54.347Z,64.03
2023-02-19T16:56:54.726Z,64.34
2023-02-19T16:59:43.428Z,65.17
2023-02-19T17:02:34.756Z,65.60
2023-02-19T17:05:44.348Z,66.00
2023-02-19T17:08:34.695Z,66.57
2023-02-19T17:11:36.477Z,67.23
2023-02-19T17:14:25.283Z,67.64
2023-02-19T17:17:34.240Z,68.14
2023-02-19T17:20:45.602Z,68.89
2023-02-19T17:23:47.432Z,69.48
2023-02-19T17:26:54.886Z,69.53
2023-02-19T17:30:04.051Z,70.25
2023-02-19T17:32:57.657Z,70.64
2023-02-19T17:36:07.264Z,70.74
2023-02-19T17:38:56.035Z,71.35
2023-02-19T17:42:02.970Z,71.65
2023-02-19T17:45:02.889Z,71.73
2023-02-19T17:48:12.822Z,72.12
2023-02-19T17:51:21.530Z,72.40
2023-02-19T17:54:30.282Z,72.51
2023-02-19T17:57:18.950Z,72.58
2023-02-19T18:00:23.141Z,73.00
2023-02-19T18:03:22.521Z,72.99
2023-02-19T18:06:19.106Z,72.97
2023-02-19T18:09:27.839Z,73.08
2023-02-19T18:12:18.800Z,73.48
2023-02-19T18:15:28.388Z,73.75
2023-02-19T18:18:23.292Z,73.57
2023-02-19T18:21:13.378Z,73.73
2023-02-19T18:24:09.522Z,73.64
2023-02-19T18:27:11.841Z,73.68
2023-02-19T18:30:00.639Z,73.75
2023-02-19T18:33:10.542Z,74.01
2023-02-19T18:36:11.954Z,74.24
2023-02-19T18:39:21.633Z,74.31
2023-02-19T18:42:10.194Z,74.44
2023-02-19T18:45:19.130Z,74.46
2023-02-19T18:48:27.880Z,74.59
2023-02-19T18:51:36.575Z,75.01
2023-02-19T18:54:36.326Z,75.32
2023-02-19T18:57:45.264Z,75.32
2023-02-19T19:00:39.190Z,75.28
2023-02-19T19:03:48.055Z,75.42
2023-02-19T19:06:58.275Z,75.77
2023-02-19T19:10:06.985Z,75.86
2023-02-19T19:12:55.611Z,75.86
2023-02-19T19:15:49.243Z,76.13
2023-02-19T19:19:00.700Z,76.28
2023-02-19T19:21:53.284Z,76.27
2023-02-19T19:24:42.683Z,76.39
2023-02-19T19:27:54.945Z,76.54
2023-02-19T19:31:04.225Z,76.58
2023-02-19T19:34:16.045Z,76.81
2023-02-19T19:37:17.963Z,76.77
2023-02-19T19:40:27.432Z,77.19
2023-02-19T19:43:37.298Z,77.56
2023-02-19T19:47:03.969Z,77.62
2023-02-19T19:50:13.997Z,77.88
2023-02-19T19:53:23.190Z,77.83
2023-02-19T19:56:31.471Z,77.72
2023-02-19T19:59:41.079Z,77.76
2023-02-19T20:02:43.260Z,77.83
2023-02-19T20:05:50.723Z,77.83
2023-02-19T20:09:02.613Z,78.30
2023-02-19T20:11:58.191Z,78.43
2023-02-19T20:14:49.697Z,78.74
2023-02-19T20:17:58.515Z,78.67
2023-02-19T20:21:08.409Z,78.69
2023-02-19T20:24:12.987Z,78.85
2023-02-19T20:27:03.590Z,78.85
2023-02-19T20:29:52.318Z,78.80
2023-02-19T20:33:01.037Z,79.08
2023-02-19T20:36:10.306Z,79.43
2023-02-19T20:39:11.622Z,79.38
2023-02-19T20:42:20.389Z,79.37
2023-02-19T20:45:30.284Z,79.51
2023-02-19T20:48:39.403Z,79.53
2023-02-19T20:51:51.295Z,79.57
2023-02-19T20:54:54.633Z,79.56
2023-02-19T20:57:53.512Z,79.48
2023-02-19T21:01:02.052Z,79.64
2023-02-19T21:04:10.800Z,79.98
2023-02-19T21:07:19.854Z,80.19
2023-02-19T21:10:12.434Z,79.96
2023-02-19T21:13:13.994Z,80.18
2023-02-19T21:16:13.522Z,80.20
2023-02-19T21:19:06.935Z,80.27
2023-02-19T21:22:09.454Z,80.35
2023-02-19T21:25:00.995Z,80.35
2023-02-19T21:28:08.493Z,80.29
2023-02-19T21:31:17.571Z,80.25
2023-02-19T21:34:27.935Z,80.35
2023-02-19T21:37:37.236Z,80.54
2023-02-19T21:40:44.807Z,80.84
2023-02-19T21:43:35.993Z,80.90
2023-02-19T21:46:32.660Z,81.16
2023-02-19T21:49:42.012Z,81.57
2023-02-19T21:52:33.934Z,81.60
2023-02-19T21:55:57.451Z,81.69
2023-02-19T21:59:06.366Z,81.87
2023-02-19T22:02:17.520Z,81.99
2023-02-19T22:05:14.780Z,82.01
2023-02-19T22:08:23.768Z,82.31
2023-02-19T22:11:32.781Z,82.54
2023-02-19T22:14:41.654Z,82.33
2023-02-19T22:17:50.531Z,82.55
2023-02-19T22:20:59.493Z,82.54
2023-02-19T22:24:13.823Z,82.74
2023-02-19T22:27:24.204Z,82.88
2023-02-19T22:30:32.988Z,82.81
2023-02-19T22:33:42.579Z,83.35
2023-02-19T22:36:51.812Z,83.34
2023-02-19T22:40:01.561Z,83.24
2023-02-19T22:43:11.085Z,83.47
2023-02-19T22:46:21.267Z,83.50
2023-02-19T22:49:30.648Z,83.30
2023-02-19T22:52:30.686Z,83.35
2023-02-19T22:55:24.426Z,83.38
2023-02-19T22:58:26.640Z,83.40
2023-02-19T23:01:35.542Z,83.38
2023-02-19T23:04:35.046Z,83.38
2023-02-19T23:07:36.600Z,83.49
2023-02-19T23:10:45.581Z,83.52
2023-02-19T23:13:54.941Z,83.26
2023-02-19T23:16:43.763Z,83.32
2023-02-19T23:19:55.857Z,83.28
2023-02-19T23:23:03.352Z,83.43
2023-02-19T23:26:05.085Z,83.35
2023-02-19T23:29:16.651Z,83.45
2023-02-19T23:32:25.728Z,83.35
2023-02-19T23:35:34.714Z,83.21
2023-02-19T23:38:45.178Z,82.92
2023-02-19T23:41:47.953Z,83.06
2023-02-19T23:44:57.110Z,82.80
2023-02-19T23:47:58.250Z,82.81
2023-02-19T23:51:00.148Z,82.82
2023-02-19T23:54:09.012Z,82.68
2023-02-19T23:57:17.976Z,82.64
